Time;durP1;ratioP1;P1;durP2;ratioP2;P2;SDS_P1;SDS_P2;PMS_P1;PMS_P2;Temp;Humidity;BMP_temperature;BMP_pressure;BME280_temperature;BME280_humidity;BME280_pressure;Samples;Min_cycle;Max_cycle;Signal;HPM_P1;HPM_P2
2021/08/07 00:01:11;;;;;;;46.47;27.77;;;14.70;99.90;;;;;;5086856;28;20397;-82
2021/08/07 00:03:37;;;;;;;54.53;30.83;;;14.70;99.90;;;;;;5071812;28;20017;-83
2021/08/07 00:06:02;;;;;;;46.60;26.70;;;14.60;99.90;;;;;;5071868;28;20029;-82
2021/08/07 00:08:28;;;;;;;42.08;26.48;;;14.50;99.90;;;;;;5071307;28;20103;-83
2021/08/07 00:10:53;;;;;;;43.42;27.55;;;14.40;99.90;;;;;;5071793;28;20610;-83
2021/08/07 00:13:19;;;;;;;37.53;22.60;;;14.40;99.90;;;;;;5071603;28;20039;-82
2021/08/07 00:15:45;;;;;;;37.67;24.15;;;14.30;99.90;;;;;;5071704;28;20107;-82
2021/08/07 00:18:10;;;;;;;31.92;20.55;;;14.20;99.90;;;;;;5071763;28;20017;-83
2021/08/07 00:20:36;;;;;;;32.50;21.13;;;14.20;99.90;;;;;;5071774;28;20043;-83
2021/08/07 00:23:01;;;;;;;37.47;24.13;;;14.10;99.90;;;;;;5085398;28;20028;-83
2021/08/07 00:25:27;;;;;;;41.75;22.40;;;14.10;99.90;;;;;;5082392;28;20119;-82
2021/08/07 00:27:52;;;;;;;47.38;23.42;;;14.10;99.90;;;;;;5071599;28;20060;-83
2021/08/07 00:30:18;;;;;;;42.30;23.50;;;14.00;99.90;;;;;;5071955;28;20025;-83
2021/08/07 00:32:43;;;;;;;39.17;22.00;;;14.10;99.90;;;;;;5071680;28;20032;-83
2021/08/07 00:35:09;;;;;;;39.83;22.38;;;14.00;99.90;;;;;;5071563;28;20037;-82
2021/08/07 00:37:35;;;;;;;35.05;21.35;;;14.00;99.90;;;;;;5071534;28;20043;-83
2021/08/07 00:40:01;;;;;;;43.38;22.42;;;14.00;99.90;;;;;;5071585;28;20035;-82
2021/08/07 00:42:26;;;;;;;34.80;21.83;;;14.10;99.90;;;;;;5074304;28;20033;-83
2021/08/07 00:44:52;;;;;;;30.08;18.77;;;14.20;99.90;;;;;;5091934;28;20101;-83
2021/08/07 00:47:18;;;;;;;26.23;17.33;;;14.20;99.90;;;;;;5091715;28;20020;-83
2021/08/07 00:49:44;;;;;;;31.40;18.13;;;14.30;99.90;;;;;;5094285;28;20031;-82
2021/08/07 00:52:10;;;;;;;29.90;17.85;;;14.40;99.90;;;;;;5095571;28;20062;-82
2021/08/07 00:54:38;;;;;;;29.92;17.67;;;14.50;99.90;;;;;;5094743;28;20028;-83
2021/08/07 00:57:04;;;;;;;33.58;20.38;;;14.50;99.90;;;;;;5095581;28;20089;-83
2021/08/07 00:59:29;;;;;;;32.42;18.70;;;14.50;99.90;;;;;;5095569;28;20395;-83
2021/08/07 01:01:58;;;;;;;46.10;23.70;;;14.50;99.90;;;;;;5095336;28;20024;-83
2021/08/07 01:04:28;;;;;;;36.90;19.90;;;14.60;99.90;;;;;;5095202;28;20099;-83
2021/08/07 01:07:17;;;;;;;39.05;21.45;;;14.60;99.90;;;;;;5095414;28;20439;-84
2021/08/07 01:10:06;;;;;;;32.10;19.90;;;14.60;99.90;;;;;;5095407;28;20107;-83
2021/08/07 01:13:00;;;;;;;42.42;21.95;;;14.60;99.90;;;;;;5093857;28;20028;-83
2021/08/07 01:15:28;;;;;;;40.53;21.27;;;14.50;99.90;;;;;;5095305;28;20051;-84
2021/08/07 01:17:56;;;;;;;41.72;21.20;;;14.50;99.90;;;;;;5095205;28;20089;-83
2021/08/07 01:20:26;;;;;;;33.13;19.45;;;14.50;99.90;;;;;;5095171;28;20081;-83
2021/08/07 01:23:19;;;;;;;41.90;20.08;;;14.50;99.90;;;;;;5074618;28;20489;-83
2021/08/07 01:25:56;;;;;;;28.27;17.75;;;14.50;99.90;;;;;;5074796;28;20039;-84
2021/08/07 01:28:24;;;;;;;54.88;20.83;;;14.40;99.90;;;;;;5074679;28;20550;-84
2021/08/07 01:30:52;;;;;;;33.05;20.05;;;14.30;99.90;;;;;;5075017;28;20089;-83
2021/08/07 01:33:18;;;;;;;42.92;20.58;;;14.30;99.90;;;;;;5094567;28;20077;-83
2021/08/07 01:35:44;;;;;;;51.80;21.38;;;14.30;99.90;;;;;;5094947;28;20399;-83
2021/08/07 01:38:10;;;;;;;39.22;21.98;;;14.20;99.90;;;;;;5094808;28;20035;-83
2021/08/07 01:40:36;;;;;;;32.53;19.63;;;14.20;99.90;;;;;;5093201;28;20020;-83
2021/08/07 01:43:02;;;;;;;43.15;20.83;;;14.20;99.90;;;;;;5094556;28;20024;-84
2021/08/07 01:45:28;;;;;;;39.03;20.50;;;14.20;99.90;;;;;;5094710;28;20020;-84
2021/08/07 01:47:59;;;;;;;43.97;22.73;;;14.20;99.90;;;;;;5094614;28;20042;-83
2021/08/07 01:50:32;;;;;;;44.50;21.45;;;14.20;99.90;;;;;;5085966;28;20017;-83
2021/08/07 01:53:05;;;;;;;35.92;20.05;;;14.10;99.90;;;;;;5074203;28;20055;-83
2021/08/07 01:55:46;;;;;;;43.65;22.77;;;14.10;99.90;;;;;;5074217;28;20024;-83
2021/08/07 01:58:22;;;;;;;39.42;21.48;;;14.10;99.90;;;;;;5074175;28;20038;-84
2021/08/07 02:00:48;;;;;;;37.63;20.75;;;14.10;99.90;;;;;;5084514;28;20030;-83
2021/08/07 02:03:16;;;;;;;30.13;19.15;;;14.20;99.90;;;;;;5094208;28;20028;-83
2021/08/07 02:05:43;;;;;;;40.63;20.80;;;14.20;99.90;;;;;;5094343;28;20032;-82
2021/08/07 02:08:10;;;;;;;33.65;20.08;;;14.20;99.90;;;;;;5094112;28;20060;-82
2021/08/07 02:10:37;;;;;;;44.35;20.88;;;14.30;99.90;;;;;;5087529;28;20089;-83
2021/08/07 02:13:05;;;;;;;44.40;20.42;;;14.30;99.90;;;;;;5073765;28;20051;-84
2021/08/07 02:15:34;;;;;;;41.40;21.27;;;14.30;99.90;;;;;;5073895;28;20073;-83
2021/08/07 02:17:59;;;;;;;41.95;21.42;;;14.30;99.90;;;;;;5073804;28;20109;-84
2021/08/07 02:20:26;;;;;;;41.83;22.17;;;14.20;99.90;;;;;;5075533;28;20059;-82
2021/08/07 02:22:52;;;;;;;37.17;19.73;;;14.20;99.90;;;;;;5093713;28;20020;-83
2021/08/07 02:25:19;;;;;;;42.17;22.27;;;14.20;99.90;;;;;;5094018;28;20036;-83
2021/08/07 02:27:47;;;;;;;42.17;22.35;;;14.20;99.90;;;;;;5093862;28;20163;-83
2021/08/07 02:30:13;;;;;;;42.67;21.67;;;14.30;99.90;;;;;;5093990;28;20434;-83
2021/08/07 02:32:41;;;;;;;43.85;22.73;;;14.30;99.90;;;;;;5075587;28;20056;-84
2021/08/07 02:35:08;;;;;;;39.78;19.75;;;14.30;99.90;;;;;;5073374;28;20029;-82
2021/08/07 02:37:34;;;;;;;33.60;20.83;;;14.30;99.90;;;;;;5073413;28;20028;-83
2021/08/07 02:40:03;;;;;;;26.00;16.52;;;14.20;99.90;;;;;;5073419;28;20024;-82
2021/08/07 02:42:30;;;;;;;32.67;17.75;;;14.20;99.90;;;;;;5086212;28;20036;-82
2021/08/07 02:44:56;;;;;;;38.20;19.25;;;14.20;99.90;;;;;;5093579;28;20082;-83
2021/08/07 02:47:24;;;;;;;31.40;19.10;;;14.10;99.90;;;;;;5093454;28;20028;-84
2021/08/07 02:49:50;;;;;;;27.05;16.63;;;14.10;99.90;;;;;;5093386;28;20442;-83
2021/08/07 02:52:17;;;;;;;33.30;20.35;;;14.10;99.90;;;;;;5084223;28;20107;-83
2021/08/07 02:54:43;;;;;;;33.08;19.55;;;14.00;99.90;;;;;;5073047;28;20078;-83
2021/08/07 02:57:08;;;;;;;38.47;20.23;;;14.00;99.90;;;;;;5073020;28;20027;-83
2021/08/07 02:59:34;;;;;;;42.88;20.35;;;14.00;99.90;;;;;;5073159;28;20017;-83
2021/08/07 03:02:00;;;;;;;31.00;18.45;;;14.00;99.90;;;;;;5076044;28;20035;-83
2021/08/07 03:04:26;;;;;;;27.92;18.17;;;14.10;99.90;;;;;;5093132;28;20032;-83
2021/08/07 03:06:51;;;;;;;43.17;20.88;;;14.10;99.90;;;;;;5093070;28;20037;-83
2021/08/07 03:09:17;;;;;;;40.05;21.23;;;14.10;99.90;;;;;;5092659;28;20020;-83
2021/08/07 03:11:42;;;;;;;46.15;20.35;;;14.10;99.90;;;;;;5092002;28;20032;-83
2021/08/07 03:14:08;;;;;;;41.60;20.55;;;14.10;99.90;;;;;;5074212;28;20047;-83
2021/08/07 03:16:33;;;;;;;40.00;22.75;;;14.10;99.90;;;;;;5072699;28;20086;-83
2021/08/07 03:18:59;;;;;;;42.17;19.90;;;14.10;99.90;;;;;;5072626;28;20385;-83
2021/08/07 03:21:24;;;;;;;44.75;21.90;;;14.20;99.90;;;;;;5072608;28;20445;-83
2021/08/07 03:23:50;;;;;;;37.45;20.08;;;14.10;99.90;;;;;;5073324;28;20108;-83
2021/08/07 03:26:15;;;;;;;34.72;19.35;;;14.10;99.90;;;;;;5072508;28;20675;-83
2021/08/07 03:28:41;;;;;;;30.50;20.02;;;14.20;99.90;;;;;;5072440;28;20058;-83
2021/08/07 03:31:07;;;;;;;45.35;23.40;;;14.30;99.90;;;;;;5072460;28;20028;-84
2021/08/07 03:33:33;;;;;;;34.92;21.95;;;14.30;99.90;;;;;;5079518;28;20373;-83
2021/08/07 03:35:59;;;;;;;57.90;26.77;;;14.30;99.90;;;;;;5091831;28;20066;-83
2021/08/07 03:38:24;;;;;;;33.80;20.65;;;14.30;99.90;;;;;;5092475;28;20067;-83
2021/08/07 03:40:50;;;;;;;42.63;23.27;;;14.30;99.90;;;;;;5092543;28;20445;-83
2021/08/07 03:43:15;;;;;;;49.40;24.38;;;14.40;99.90;;;;;;5091877;28;20090;-83
2021/08/07 03:45:41;;;;;;;45.17;25.73;;;14.40;99.90;;;;;;5092423;28;20032;-83
2021/08/07 03:48:06;;;;;;;39.63;23.98;;;14.50;99.90;;;;;;5092359;28;20507;-83
2021/08/07 03:50:32;;;;;;;40.15;25.00;;;14.50;99.90;;;;;;5092407;28;20518;-83
2021/08/07 03:52:58;;;;;;;43.75;25.30;;;14.50;99.90;;;;;;5092096;28;20027;-83
2021/08/07 03:55:24;;;;;;;39.75;22.55;;;14.50;99.90;;;;;;5074644;28;20063;-83
2021/08/07 03:57:52;;;;;;;43.92;24.55;;;14.60;99.90;;;;;;5071979;28;20032;-83
2021/08/07 04:00:18;;;;;;;63.25;29.38;;;14.60;99.90;;;;;;5072002;28;20021;-83
2021/08/07 04:02:44;;;;;;;50.72;28.02;;;14.50;99.90;;;;;;5071722;28;20031;-83
2021/08/07 04:05:10;;;;;;;56.67;27.70;;;14.50;99.90;;;;;;5084035;28;20024;-82
2021/08/07 04:07:35;;;;;;;48.70;27.80;;;14.50;99.90;;;;;;5092015;28;20034;-83
2021/08/07 04:10:01;;;;;;;48.60;26.90;;;14.50;99.90;;;;;;5091908;28;20032;-83
2021/08/07 04:12:26;;;;;;;39.50;23.58;;;14.40;99.90;;;;;;5091913;28;20031;-83
2021/08/07 04:14:52;;;;;;;53.63;28.25;;;14.40;99.90;;;;;;5084713;28;20032;-83
2021/08/07 04:17:17;;;;;;;59.63;27.80;;;14.50;99.90;;;;;;5071669;28;20438;-83
2021/08/07 04:19:43;;;;;;;52.50;29.05;;;14.40;99.90;;;;;;5071857;28;20431;-83
2021/08/07 04:22:08;;;;;;;52.72;28.02;;;14.40;99.90;;;;;;5071571;28;20024;-83
2021/08/07 04:24:34;;;;;;;51.58;25.17;;;14.40;99.90;;;;;;5072859;28;20039;-82
2021/08/07 04:26:59;;;;;;;48.88;27.77;;;14.30;99.90;;;;;;5091868;28;20032;-83
2021/08/07 04:29:25;;;;;;;50.97;26.52;;;14.30;99.90;;;;;;5091907;28;20111;-83
2021/08/07 04:31:51;;;;;;;54.55;29.45;;;14.30;99.90;;;;;;5091554;28;20030;-83
2021/08/07 04:34:16;;;;;;;64.28;28.42;;;14.30;99.90;;;;;;5091715;28;20023;-83
2021/08/07 04:36:42;;;;;;;57.97;30.63;;;14.30;99.90;;;;;;5075006;28;20025;-83
2021/08/07 04:39:07;;;;;;;54.00;27.55;;;14.30;99.90;;;;;;5071790;28;20046;-83
2021/08/07 04:41:33;;;;;;;54.03;28.45;;;14.30;99.90;;;;;;5071387;28;20107;-83
2021/08/07 04:43:58;;;;;;;51.38;28.13;;;14.30;99.90;;;;;;5071665;28;20477;-83
2021/08/07 04:46:24;;;;;;;49.38;30.60;;;14.30;99.90;;;;;;5074773;28;20057;-83
2021/08/07 04:48:49;;;;;;;55.75;27.58;;;14.30;99.90;;;;;;5071351;28;20136;-83
2021/08/07 04:51:15;;;;;;;65.78;32.17;;;14.40;99.90;;;;;;5071348;28;20028;-83
2021/08/07 04:53:41;;;;;;;71.80;33.30;;;14.40;99.90;;;;;;5071665;28;20566;-83
2021/08/07 04:56:06;;;;;;;68.18;33.30;;;14.50;99.90;;;;;;5076736;28;20020;-83
2021/08/07 04:58:32;;;;;;;53.78;30.15;;;14.60;99.90;;;;;;5091643;28;20102;-82
2021/08/07 05:00:57;;;;;;;59.17;30.15;;;14.60;99.90;;;;;;5091666;28;20055;-83
2021/08/07 05:03:23;;;;;;;48.58;27.88;;;14.60;99.90;;;;;;5091333;28;20029;-83
2021/08/07 05:05:48;;;;;;;54.08;31.00;;;14.70;99.90;;;;;;5091022;28;20028;-83
2021/08/07 05:08:14;;;;;;;59.85;30.35;;;14.80;99.90;;;;;;5071216;28;20032;-83
2021/08/07 05:10:40;;;;;;;65.13;31.80;;;14.90;99.90;;;;;;5071378;28;20060;-83
2021/08/07 05:13:05;;;;;;;55.97;30.60;;;14.90;99.90;;;;;;5071070;28;20021;-83
2021/08/07 05:15:31;;;;;;;66.55;31.45;;;15.00;99.90;;;;;;5071131;28;20453;-82
2021/08/07 05:17:56;;;;;;;55.10;30.35;;;15.10;99.90;;;;;;5072157;28;20100;-82
2021/08/07 05:20:22;;;;;;;54.90;30.48;;;15.20;99.90;;;;;;5071233;28;20025;-82
2021/08/07 05:22:48;;;;;;;59.92;31.95;;;15.30;99.90;;;;;;5070997;28;20021;-83
2021/08/07 05:25:15;;;;;;;56.45;33.08;;;15.50;99.90;;;;;;5071154;28;20109;-82
2021/08/07 05:27:40;;;;;;;68.65;33.30;;;15.60;99.90;;;;;;5080017;28;20039;-82
2021/08/07 05:30:07;;;;;;;62.55;31.58;;;15.60;99.90;;;;;;5091267;28;20021;-82
2021/08/07 05:32:33;;;;;;;54.10;29.73;;;15.70;99.90;;;;;;5091040;28;20040;-82
2021/08/07 05:34:59;;;;;;;52.85;30.90;;;15.70;99.90;;;;;;5092383;28;20028;-84
2021/08/07 05:37:24;;;;;;;54.85;31.20;;;15.70;99.90;;;;;;5094493;28;20557;-82
2021/08/07 05:39:50;;;;;;;51.05;27.85;;;15.80;99.90;;;;;;5094928;28;20511;-83
2021/08/07 05:42:15;;;;;;;66.35;29.70;;;15.90;99.90;;;;;;5094577;28;20379;-82
2021/08/07 05:44:41;;;;;;;46.80;30.33;;;16.00;99.90;;;;;;5094669;28;20097;-83
2021/08/07 05:47:07;;;;;;;44.35;28.08;;;16.10;99.90;;;;;;5094613;28;20384;-82
2021/08/07 05:49:32;;;;;;;49.42;30.85;;;16.20;99.90;;;;;;5075486;28;20035;-83
2021/08/07 05:51:58;;;;;;;55.67;30.38;;;16.30;99.90;;;;;;5074239;28;20028;-82
2021/08/07 05:54:23;;;;;;;49.97;30.48;;;16.40;99.90;;;;;;5074324;28;20082;-82
2021/08/07 05:56:49;;;;;;;48.05;29.55;;;16.60;99.90;;;;;;5074306;28;20104;-83
2021/08/07 05:59:15;;;;;;;54.90;31.50;;;16.70;99.90;;;;;;5087437;28;20024;-83
2021/08/07 06:01:40;;;;;;;49.75;28.85;;;16.80;99.90;;;;;;5091846;28;20089;-83
2021/08/07 06:04:06;;;;;;;44.67;28.27;;;16.80;99.90;;;;;;5071855;28;20036;-82
2021/08/07 06:06:31;;;;;;;37.88;23.60;;;16.80;99.90;;;;;;5073861;28;20046;-83
2021/08/07 06:08:57;;;;;;;43.90;24.20;;;16.90;99.90;;;;;;5076950;28;20036;-84
2021/08/07 06:11:22;;;;;;;37.33;24.48;;;17.00;99.90;;;;;;5080881;28;20028;-85
2021/08/07 06:13:48;;;;;;;36.53;21.88;;;17.00;99.90;;;;;;5078642;28;20033;-85
2021/08/07 06:16:13;;;;;;;33.25;23.13;;;17.10;99.90;;;;;;5080336;28;20106;-83
2021/08/07 06:18:40;;;;;;;31.40;20.75;;;17.10;99.90;;;;;;5081196;28;20024;-85
2021/08/07 06:21:05;;;;;;;37.88;22.15;;;16.90;99.90;;;;;;5086266;28;20013;-83
2021/08/07 06:23:31;;;;;;;31.75;20.25;;;16.90;99.90;;;;;;5088498;28;20021;-84
2021/08/07 06:25:57;;;;;;;28.23;20.08;;;17.00;99.90;;;;;;5079715;28;20566;-84
2021/08/07 06:28:24;;;;;;;39.47;21.30;;;16.90;99.90;;;;;;5079742;28;20052;-83
2021/08/07 06:30:49;;;;;;;30.17;18.70;;;16.90;99.90;;;;;;5078532;28;20445;-86
2021/08/07 06:33:15;;;;;;;29.88;18.92;;;16.70;99.90;;;;;;5087843;28;20508;-83
2021/08/07 06:35:41;;;;;;;39.58;19.38;;;16.80;99.90;;;;;;5080367;28;20025;-86
2021/08/07 06:38:07;;;;;;;25.05;17.63;;;16.70;99.90;;;;;;5077402;28;20017;-83
2021/08/07 06:40:34;;;;;;;22.80;16.90;;;16.80;99.90;;;;;;5074366;28;20028;-84
2021/08/07 06:43:00;;;;;;;26.85;16.80;;;16.80;99.90;;;;;;5078931;28;20095;-83
2021/08/07 06:45:25;;;;;;;25.52;17.27;;;16.80;99.90;;;;;;5078396;28;20107;-82
2021/08/07 06:47:51;;;;;;;26.75;17.85;;;16.90;99.90;;;;;;5079581;28;20400;-83
2021/08/07 06:50:17;;;;;;;25.90;16.70;;;17.00;99.90;;;;;;5086977;28;20102;-83
2021/08/07 06:52:43;;;;;;;31.42;18.35;;;17.00;99.90;;;;;;5071167;28;20040;-83
2021/08/07 06:55:09;;;;;;;28.63;16.17;;;17.00;99.90;;;;;;5085020;28;20082;-83
2021/08/07 06:57:38;;;;;;;24.05;16.58;;;16.90;99.90;;;;;;5068616;28;20044;-84
2021/08/07 07:00:04;;;;;;;38.40;18.35;;;16.90;99.90;;;;;;5084568;28;20020;-83
2021/08/07 07:02:30;;;;;;;26.55;17.80;;;16.80;99.90;;;;;;5086316;28;20048;-82
2021/08/07 07:04:55;;;;;;;37.13;19.05;;;16.80;99.90;;;;;;5077802;28;20055;-82
2021/08/07 07:07:21;;;;;;;31.48;21.30;;;16.80;99.90;;;;;;5086976;28;20020;-82
2021/08/07 07:09:46;;;;;;;29.35;18.95;;;16.90;99.90;;;;;;5083946;28;20521;-82
2021/08/07 07:12:13;;;;;;;32.22;19.70;;;16.80;99.90;;;;;;5077871;28;20039;-82
2021/08/07 07:14:39;;;;;;;28.38;18.83;;;17.00;99.90;;;;;;5086652;28;20024;-85
2021/08/07 07:17:05;;;;;;;28.33;19.75;;;17.10;99.90;;;;;;5084669;28;20447;-84
2021/08/07 07:19:30;;;;;;;24.88;17.15;;;17.30;99.90;;;;;;5078708;28;20039;-84
2021/08/07 07:21:57;;;;;;;25.83;17.30;;;17.30;99.90;;;;;;5077391;28;20032;-86
2021/08/07 07:24:22;;;;;;;31.17;18.02;;;17.30;99.90;;;;;;5069742;28;20441;-85
2021/08/07 07:26:48;;;;;;;28.40;17.00;;;17.40;99.90;;;;;;5078810;28;20089;-82
2021/08/07 07:29:13;;;;;;;23.60;15.50;;;17.50;99.90;;;;;;5070531;28;20624;-84
2021/08/07 07:31:39;;;;;;;27.13;16.27;;;17.40;99.90;;;;;;5079968;28;20044;-84
2021/08/07 07:34:04;;;;;;;34.35;17.83;;;17.70;99.90;;;;;;5082784;28;20025;-83
2021/08/07 07:36:30;;;;;;;23.08;15.77;;;17.80;99.90;;;;;;5072120;28;20111;-84
2021/08/07 07:38:55;;;;;;;26.35;16.52;;;17.90;99.90;;;;;;5072364;28;20057;-84
2021/08/07 07:41:21;;;;;;;19.08;15.55;;;18.10;99.90;;;;;;5071985;28;20032;-84
2021/08/07 07:43:47;;;;;;;23.95;13.10;;;18.30;99.90;;;;;;5072189;28;20021;-85
2021/08/07 07:46:13;;;;;;;26.20;16.20;;;18.40;99.90;;;;;;5072239;28;20024;-84
2021/08/07 07:48:40;;;;;;;25.08;14.18;;;18.30;99.90;;;;;;5072008;28;20496;-86
2021/08/07 07:51:05;;;;;;;27.23;13.45;;;18.40;99.90;;;;;;5072166;28;20581;-87
2021/08/07 07:53:31;;;;;;;25.75;13.50;;;18.40;99.90;;;;;;5087730;28;20031;-85
2021/08/07 07:55:56;;;;;;;23.63;12.68;;;18.40;99.90;;;;;;5092184;28;20430;-85
2021/08/07 07:58:22;;;;;;;23.05;13.23;;;18.40;99.90;;;;;;5091741;28;20020;-82
2021/08/07 08:00:47;;;;;;;18.35;13.70;;;18.20;99.90;;;;;;5092423;28;20027;-83
2021/08/07 08:03:13;;;;;;;25.98;14.15;;;18.20;99.90;;;;;;5082429;28;20020;-83
2021/08/07 08:05:39;;;;;;;15.85;12.75;;;18.30;99.90;;;;;;5091655;28;20032;-82
2021/08/07 08:08:05;;;;;;;22.65;11.68;;;18.50;99.90;;;;;;5082077;28;20032;-82
2021/08/07 08:10:31;;;;;;;27.60;10.73;;;18.60;99.90;;;;;;5071737;28;20079;-82
2021/08/07 08:12:56;;;;;;;15.50;10.35;;;18.70;99.90;;;;;;5053524;28;20412;-84
2021/08/07 08:15:22;;;;;;;15.57;10.57;;;18.70;99.90;;;;;;5072022;28;20028;-83
2021/08/07 08:17:48;;;;;;;18.23;11.02;;;18.70;99.90;;;;;;5071751;28;20028;-79
2021/08/07 08:20:14;;;;;;;16.83;8.80;;;19.00;99.90;;;;;;5071710;28;20035;-81
2021/08/07 08:22:40;;;;;;;28.27;9.63;;;19.10;99.90;;;;;;5071670;28;20056;-81
2021/08/07 08:25:08;;;;;;;22.00;9.38;;;19.10;99.90;;;;;;5082080;28;20097;-84
2021/08/07 08:27:34;;;;;;;17.30;11.48;;;19.10;99.90;;;;;;5091964;28;20111;-80
2021/08/07 08:30:00;;;;;;;15.88;8.32;;;19.40;99.90;;;;;;5091998;28;20461;-83
2021/08/07 08:32:25;;;;;;;13.55;7.15;;;19.90;99.90;;;;;;5091550;28;20110;-84
2021/08/07 08:34:51;;;;;;;17.13;7.18;;;19.90;99.90;;;;;;5085418;28;20078;-84
2021/08/07 08:37:16;;;;;;;25.20;7.03;;;19.70;99.90;;;;;;5086736;28;20036;-81
2021/08/07 08:39:42;;;;;;;12.40;5.70;;;19.50;99.90;;;;;;5091443;28;20028;-82
2021/08/07 08:42:08;;;;;;;14.13;4.60;;;19.60;99.90;;;;;;5068362;28;20633;-82
2021/08/07 08:44:38;;;;;;;21.20;5.38;;;19.60;99.90;;;;;;5069578;28;20024;-82
2021/08/07 08:47:06;;;;;;;18.40;5.40;;;19.50;99.90;;;;;;5075733;28;20024;-83
2021/08/07 08:49:33;;;;;;;23.92;5.80;;;19.40;99.90;;;;;;5077549;28;20020;-85
2021/08/07 08:52:01;;;;;;;15.18;5.55;;;19.30;99.90;;;;;;5072176;28;20107;-82
2021/08/07 08:54:28;;;;;;;14.35;6.13;;;19.30;99.90;;;;;;5067354;28;20120;-82
2021/08/07 08:56:53;;;;;;;14.43;5.80;;;19.30;99.90;;;;;;5077422;28;20024;-83
2021/08/07 08:59:20;;;;;;;9.93;5.40;;;19.50;99.90;;;;;;5069337;28;20035;-82
2021/08/07 09:01:46;;;;;;;18.67;6.43;;;19.10;99.90;;;;;;5073455;28;20027;-82
2021/08/07 09:04:12;;;;;;;22.05;6.15;;;19.20;99.90;;;;;;5077228;28;20016;-81
2021/08/07 09:06:37;;;;;;;16.05;5.47;;;19.50;99.90;;;;;;5075836;28;20063;-81
2021/08/07 09:09:08;;;;;;;15.07;4.35;;;19.40;99.90;;;;;;5073020;28;20069;-82
2021/08/07 09:11:39;;;;;;;14.23;4.97;;;19.90;99.90;;;;;;5071182;28;20393;-80
2021/08/07 09:14:14;;;;;;;11.48;4.78;;;20.00;99.90;;;;;;5086577;28;20480;-81
2021/08/07 09:17:05;;;;;;;16.33;4.90;;;20.20;99.90;;;;;;5080935;28;20025;-80
2021/08/07 09:19:39;;;;;;;10.25;3.88;;;20.40;99.90;;;;;;5067247;28;20036;-80
2021/08/07 09:22:05;;;;;;;18.25;4.55;;;20.90;99.90;;;;;;5073472;28;20033;-80
2021/08/07 09:24:31;;;;;;;19.13;4.40;;;20.80;99.90;;;;;;5079629;28;20036;-80
2021/08/07 09:27:04;;;;;;;12.60;3.63;;;20.90;99.90;;;;;;5077244;28;20388;-80
2021/08/07 09:29:40;;;;;;;14.68;3.83;;;21.40;99.90;;;;;;5079478;28;20059;-80
2021/08/07 09:32:06;;;;;;;11.18;3.20;;;21.70;99.90;;;;;;5080679;28;20032;-78
2021/08/07 09:34:32;;;;;;;10.73;2.58;;;21.80;99.90;;;;;;5088195;28;20055;-80
2021/08/07 09:36:57;;;;;;;9.88;3.10;;;21.90;99.90;;;;;;5078197;28;20036;-79
2021/08/07 09:39:37;;;;;;;6.05;2.17;;;22.10;99.90;;;;;;5086876;28;20032;-79
2021/08/07 09:42:03;;;;;;;12.13;3.25;;;22.10;99.90;;;;;;5075873;28;20016;-79
2021/08/07 09:44:30;;;;;;;5.22;2.55;;;22.10;99.90;;;;;;5082342;28;20519;-78
2021/08/07 09:47:14;;;;;;;11.27;2.75;;;21.80;99.90;;;;;;5084252;28;20024;-79
2021/08/07 09:49:45;;;;;;;13.23;2.60;;;21.70;99.90;;;;;;5083715;28;20043;-80
2021/08/07 09:52:10;;;;;;;10.00;2.75;;;21.90;99.90;;;;;;5077906;28;20036;-82
2021/08/07 09:54:41;;;;;;;8.05;2.75;;;21.80;99.90;;;;;;5084559;28;20028;-80
2021/08/07 09:57:10;;;;;;;7.93;2.30;;;21.80;99.90;;;;;;5074945;28;20492;-82
2021/08/07 09:59:48;;;;;;;8.68;2.70;;;21.50;99.90;;;;;;5080699;28;20533;-84
2021/08/07 10:02:32;;;;;;;11.13;3.22;;;21.50;99.90;;;;;;5071995;28;20591;-79
2021/08/07 10:05:01;;;;;;;10.38;2.67;;;22.30;99.90;;;;;;5089080;28;20020;-80
2021/08/07 10:07:27;;;;;;;9.30;2.58;;;23.10;99.90;;;;;;5070999;28;20054;-82
2021/08/07 10:09:54;;;;;;;7.20;2.15;;;23.20;99.90;;;;;;5079156;28;20106;-82
2021/08/07 10:12:19;;;;;;;5.63;2.03;;;22.80;99.90;;;;;;5071778;28;20075;-80
2021/08/07 10:14:45;;;;;;;6.82;1.88;;;23.10;99.90;;;;;;5073982;28;20503;-81
2021/08/07 10:17:14;;;;;;;9.60;2.53;;;23.10;99.90;;;;;;5073867;28;20113;-82
2021/08/07 10:19:40;;;;;;;13.85;2.40;;;22.90;99.90;;;;;;5073718;28;20099;-82
2021/08/07 10:22:07;;;;;;;12.60;2.25;;;22.80;99.90;;;;;;5082639;28;20508;-82
2021/08/07 10:24:35;;;;;;;6.78;1.58;;;23.00;99.90;;;;;;5087586;28;20032;-81
2021/08/07 10:27:04;;;;;;;10.27;2.15;;;23.20;99.90;;;;;;5093922;28;20492;-82
2021/08/07 10:29:34;;;;;;;6.63;1.75;;;22.80;99.90;;;;;;5094118;28;20122;-82
2021/08/07 10:32:02;;;;;;;7.22;1.90;;;22.90;99.90;;;;;;5088412;28;20025;-82
2021/08/07 10:34:29;;;;;;;9.35;1.88;;;22.90;99.90;;;;;;5073547;28;20017;-82
2021/08/07 10:36:55;;;;;;;8.65;1.80;;;23.10;99.90;;;;;;5073362;28;20037;-82
2021/08/07 10:39:20;;;;;;;7.18;1.58;;;22.70;99.90;;;;;;5073380;28;20024;-82
2021/08/07 10:41:47;;;;;;;8.45;2.30;;;23.10;99.90;;;;;;5073221;28;20024;-82
2021/08/07 10:44:13;;;;;;;7.13;2.05;;;22.80;99.90;;;;;;5073750;28;20025;-83
2021/08/07 10:46:39;;;;;;;6.72;2.00;;;23.20;99.90;;;;;;5073012;28;20028;-82
2021/08/07 10:49:07;;;;;;;7.00;2.38;;;23.10;99.90;;;;;;5073208;28;20024;-83
2021/08/07 10:51:38;;;;;;;13.88;3.38;;;23.00;99.90;;;;;;5073105;28;20067;-83
2021/08/07 10:54:26;;;;;;;7.72;2.35;;;23.00;99.90;;;;;;5089222;28;20028;-82
2021/08/07 10:56:52;;;;;;;7.72;3.05;;;23.20;99.90;;;;;;5093051;28;20035;-84
2021/08/07 10:59:26;;;;;;;14.40;3.20;;;23.40;99.90;;;;;;5077293;28;20028;-82
2021/08/07 11:01:54;;;;;;;16.17;2.97;;;23.40;99.90;;;;;;5072872;28;20025;-83
2021/08/07 11:04:23;;;;;;;16.70;3.65;;;23.20;99.90;;;;;;5073024;28;20032;-82
2021/08/07 11:06:52;;;;;;;16.35;3.75;;;22.30;99.90;;;;;;5072838;28;20023;-83
2021/08/07 11:09:34;;;;;;;16.52;2.97;;;22.50;99.90;;;;;;5039190;28;20039;-83
2021/08/07 11:12:20;;;;;;;15.60;3.40;;;22.50;99.90;;;;;;5072809;28;20597;-82
2021/08/07 11:14:49;;;;;;;17.38;3.55;;;22.70;99.90;;;;;;5072821;28;20417;-83
2021/08/07 11:17:15;;;;;;;13.45;3.50;;;22.40;99.90;;;;;;5072617;28;20023;-84
2021/08/07 11:20:05;;;;;;;8.45;3.08;;;22.20;99.90;;;;;;5084448;28;20031;-83
2021/08/07 11:22:37;;;;;;;10.35;2.58;;;22.30;99.90;;;;;;5062215;28;20409;-84
2021/08/07 11:25:22;;;;;;;9.57;3.33;;;22.20;99.90;;;;;;5072565;28;20032;-84
2021/08/07 11:30:20;;;;;;;11.32;2.75;;;22.50;99.90;;;;;;5072526;28;20029;-83
2021/08/07 11:32:57;;;;;;;7.93;2.47;;;22.20;99.90;;;;;;5082127;28;20052;-84
2021/08/07 11:35:35;;;;;;;4.88;2.22;;;22.30;99.90;;;;;;5092672;28;20056;-84
2021/08/07 11:38:06;;;;;;;5.25;2.22;;;22.70;99.90;;;;;;5092680;28;20077;-84
2021/08/07 11:40:56;;;;;;;8.35;2.38;;;23.30;99.90;;;;;;5092509;28;20559;-84
2021/08/07 11:43:26;;;;;;;9.25;2.22;;;23.30;99.90;;;;;;5079656;28;20103;-86
2021/08/07 11:45:54;;;;;;;8.02;1.95;;;23.20;99.90;;;;;;5072303;28;20012;-83
2021/08/07 11:48:42;;;;;;;5.25;2.03;;;23.30;99.90;;;;;;5072086;28;20028;-83
2021/08/07 11:51:10;;;;;;;6.95;1.65;;;23.20;99.90;;;;;;5072347;28;20029;-84
2021/08/07 11:53:45;;;;;;;6.95;2.05;;;23.30;99.90;;;;;;5082909;28;20040;-85
2021/08/07 11:56:19;;;;;;;7.50;2.00;;;23.10;99.90;;;;;;5092653;28;20651;-85
2021/08/07 11:58:48;;;;;;;7.13;1.38;;;23.30;99.90;;;;;;5092502;28;20020;-85
2021/08/07 12:01:15;;;;;;;5.32;1.42;;;23.70;99.90;;;;;;5091924;28;20020;-84
2021/08/07 12:03:46;;;;;;;7.82;1.80;;;24.00;99.90;;;;;;5083697;28;20024;-84
2021/08/07 12:06:15;;;;;;;5.90;1.92;;;24.00;99.90;;;;;;5071952;28;20054;-86
2021/08/07 12:08:41;;;;;;;8.65;2.15;;;23.90;99.90;;;;;;5071943;28;20033;-84
2021/08/07 12:11:10;;;;;;;5.65;1.70;;;24.10;99.90;;;;;;5071544;28;20069;-85
2021/08/07 12:13:40;;;;;;;7.30;1.17;;;24.80;99.90;;;;;;5076691;28;20032;-85
2021/08/07 12:16:09;;;;;;;4.40;1.20;;;25.40;99.90;;;;;;5092085;28;20091;-88
2021/08/07 12:18:45;;;;;;;9.65;1.73;;;25.20;99.90;;;;;;5091915;28;20051;-86
2021/08/07 12:21:24;;;;;;;6.30;1.27;;;24.80;99.90;;;;;;5091906;28;20532;-89
2021/08/07 12:23:54;;;;;;;4.35;1.48;;;24.70;99.90;;;;;;5087915;28;20020;-87
2021/08/07 12:26:21;;;;;;;9.52;2.08;;;24.60;99.90;;;;;;5071730;28;20040;-87
2021/08/07 12:28:54;;;;;;;6.45;1.48;;;24.50;99.90;;;;;;5071647;28;20457;-86
2021/08/07 12:31:19;;;;;;;10.90;1.45;;;24.80;99.90;;;;;;5071633;28;20024;-89
2021/08/07 12:33:45;;;;;;;9.15;1.85;;;24.80;99.90;;;;;;5071597;28;20036;-88
2021/08/07 12:36:12;;;;;;;10.48;1.60;;;25.10;99.90;;;;;;5086955;28;20115;-88